Time;durP1;ratioP1;P1;durP2;ratioP2;P2;SDS_P1;SDS_P2;PMS_P1;PMS_P2;Temp;Humidity;BMP_temperature;BMP_pressure;BME280_temperature;BME280_humidity;BME280_pressure;Samples;Min_cycle;Max_cycle;Signal;HPM_P1;HPM_P2
2022/01/12 00:00:27;;;;;;;48.72;22.02;;;4.40;99.90;;;;;;5074336;28;20107;-77
2022/01/12 00:02:53;;;;;;;49.70;22.05;;;4.40;99.90;;;;;;5074222;28;20051;-78
2022/01/12 00:05:20;;;;;;;51.88;22.33;;;4.40;99.90;;;;;;5073348;28;20024;-75
2022/01/12 00:07:50;;;;;;;49.67;22.65;;;4.40;99.90;;;;;;5074983;28;20028;-76
2022/01/12 00:10:20;;;;;;;51.47;23.58;;;4.30;99.90;;;;;;5073224;28;20528;-75
2022/01/12 00:12:45;;;;;;;58.38;25.83;;;4.40;99.90;;;;;;5074097;28;20437;-78
2022/01/12 00:15:11;;;;;;;50.75;24.67;;;4.50;99.90;;;;;;5073514;28;20104;-74
2022/01/12 00:17:37;;;;;;;51.63;24.08;;;4.40;99.90;;;;;;5073914;28;20107;-74
2022/01/12 00:20:04;;;;;;;57.97;26.23;;;4.40;99.90;;;;;;5073523;28;20565;-74
2022/01/12 00:22:32;;;;;;;55.20;25.08;;;4.40;99.90;;;;;;5073784;28;20033;-76
2022/01/12 00:35:41;;;;;;;52.22;23.20;;;4.40;99.90;;;;;;5073750;28;20484;-74
2022/01/12 00:38:08;;;;;;;48.15;23.17;;;4.40;99.90;;;;;;5072604;28;20074;-74
2022/01/12 00:40:39;;;;;;;51.28;22.75;;;4.40;99.90;;;;;;5073894;28;20020;-77
2022/01/12 00:43:05;;;;;;;52.00;24.42;;;4.50;99.90;;;;;;5073611;28;20028;-76
2022/01/12 00:45:37;;;;;;;55.33;24.38;;;4.40;99.90;;;;;;5073258;28;20116;-76
2022/01/12 00:48:04;;;;;;;50.03;24.92;;;4.50;99.90;;;;;;5073592;28;20422;-75
2022/01/12 00:50:30;;;;;;;50.58;22.63;;;4.40;99.90;;;;;;5073419;28;20127;-75
2022/01/12 00:52:55;;;;;;;46.92;22.92;;;4.40;99.90;;;;;;5073241;28;20382;-76
2022/01/12 00:55:21;;;;;;;49.75;23.02;;;4.40;99.90;;;;;;5073085;28;20098;-76
2022/01/12 00:57:47;;;;;;;43.67;22.65;;;4.30;99.90;;;;;;5075229;28;20029;-75
2022/01/12 01:00:14;;;;;;;47.50;22.73;;;4.40;99.90;;;;;;5072451;28;20020;-76
2022/01/12 01:02:39;;;;;;;47.92;22.80;;;4.40;99.90;;;;;;5074470;28;20036;-76
2022/01/12 01:05:05;;;;;;;46.63;23.52;;;4.40;99.90;;;;;;5073238;28;20050;-75
2022/01/12 01:07:31;;;;;;;42.88;22.02;;;4.40;99.90;;;;;;5073044;28;20038;-74
2022/01/12 01:10:06;;;;;;;48.08;22.95;;;4.50;99.90;;;;;;5072740;28;20016;-76
2022/01/12 01:12:34;;;;;;;43.33;21.95;;;4.40;99.90;;;;;;5072860;28;20037;-74
2022/01/12 01:15:04;;;;;;;41.10;21.02;;;4.50;99.90;;;;;;5072041;28;20549;-75
2022/01/12 01:25:49;;;;;;;40.72;20.00;;;4.50;99.90;;;;;;5073710;28;20062;-77
2022/01/12 01:28:17;;;;;;;42.60;20.80;;;4.40;99.90;;;;;;5072340;28;20040;-76
2022/01/12 01:30:44;;;;;;;43.63;20.92;;;4.40;99.90;;;;;;5073028;28;20384;-78
2022/01/12 01:33:11;;;;;;;41.78;20.45;;;4.40;99.90;;;;;;5072557;28;20062;-77
2022/01/12 01:35:55;;;;;;;41.67;20.92;;;4.50;99.90;;;;;;5072544;28;20111;-76
2022/01/12 01:38:21;;;;;;;43.03;21.27;;;4.40;99.90;;;;;;5073367;28;20071;-76
2022/01/12 01:40:47;;;;;;;35.35;19.50;;;4.40;99.90;;;;;;5073475;28;20472;-77
2022/01/12 01:43:23;;;;;;;44.97;21.95;;;4.40;99.90;;;;;;5071340;28;20416;-76
2022/01/12 01:54:03;;;;;;;45.75;20.65;;;4.40;99.90;;;;;;5073112;28;20040;-77
2022/01/12 01:56:29;;;;;;;41.22;21.27;;;4.40;99.90;;;;;;5072468;28;20033;-77
2022/01/12 01:58:55;;;;;;;43.17;21.85;;;4.40;99.90;;;;;;5073158;28;20059;-77
2022/01/12 02:01:21;;;;;;;40.03;21.27;;;4.40;99.90;;;;;;5073239;28;20403;-76
2022/01/12 02:03:46;;;;;;;40.30;22.50;;;4.40;99.90;;;;;;5071855;28;20149;-77
2022/01/12 02:06:12;;;;;;;42.10;21.00;;;4.40;99.90;;;;;;5072766;28;20460;-76
2022/01/12 02:08:38;;;;;;;42.75;21.55;;;4.40;99.90;;;;;;5073355;28;20051;-77
2022/01/12 02:11:04;;;;;;;38.58;21.95;;;4.40;99.90;;;;;;5072166;28;20075;-77
2022/01/12 02:13:31;;;;;;;40.58;20.60;;;4.40;99.90;;;;;;5073761;28;20066;-76
2022/01/12 02:16:00;;;;;;;44.17;21.40;;;4.40;99.90;;;;;;5073250;28;20032;-77
2022/01/12 02:35:22;;;;;;;39.25;20.08;;;4.50;99.90;;;;;;5072998;28;20102;-77
2022/01/12 02:40:34;;;;;;;40.92;20.15;;;4.50;99.90;;;;;;5072819;28;20060;-76
2022/01/12 02:53:43;;;;;;;40.88;20.65;;;4.40;99.90;;;;;;5070674;28;20354;-75
2022/01/12 02:56:35;;;;;;;46.13;21.45;;;4.40;99.90;;;;;;5071395;28;20028;-76
2022/01/12 02:59:02;;;;;;;37.83;18.92;;;4.50;99.90;;;;;;5069183;28;20430;-76
2022/01/12 03:04:03;;;;;;;38.93;19.47;;;4.50;99.90;;;;;;5075703;28;20496;-76
2022/01/12 03:06:34;;;;;;;41.30;21.00;;;4.40;99.90;;;;;;5075774;28;20107;-77
2022/01/12 03:09:01;;;;;;;34.90;19.02;;;4.40;99.90;;;;;;5078302;28;20021;-76
2022/01/12 03:11:28;;;;;;;37.53;19.77;;;4.40;99.90;;;;;;5076300;28;20040;-76
2022/01/12 03:13:53;;;;;;;39.38;20.55;;;4.40;99.90;;;;;;5074421;28;20032;-76
2022/01/12 03:16:24;;;;;;;40.47;20.55;;;4.40;99.90;;;;;;5074507;28;20028;-77
2022/01/12 03:18:58;;;;;;;44.20;21.88;;;4.40;99.90;;;;;;5075149;28;20029;-77
2022/01/12 03:21:28;;;;;;;41.42;20.45;;;4.50;99.90;;;;;;5077047;28;20734;-76
2022/01/12 03:23:54;;;;;;;37.95;18.33;;;4.50;99.90;;;;;;5095501;28;20113;-76
2022/01/12 03:26:21;;;;;;;37.55;20.23;;;4.40;99.90;;;;;;5094958;28;20035;-75
2022/01/12 03:28:52;;;;;;;38.92;20.33;;;4.40;99.90;;;;;;5094508;28;20043;-76
2022/01/12 03:31:21;;;;;;;41.05;19.83;;;4.50;99.90;;;;;;5095012;28;20032;-76
2022/01/12 03:38:53;;;;;;;36.75;19.45;;;4.50;99.90;;;;;;5095112;28;20024;-77
2022/01/12 03:41:19;;;;;;;44.17;19.58;;;4.50;99.90;;;;;;5094584;28;20028;-76
2022/01/12 03:43:45;;;;;;;40.72;20.05;;;4.50;99.90;;;;;;5095109;28;20421;-76
2022/01/12 03:46:12;;;;;;;39.20;19.58;;;4.60;99.90;;;;;;5094467;28;20027;-77
2022/01/12 03:48:37;;;;;;;40.22;19.10;;;4.60;99.90;;;;;;5093896;28;20028;-76
2022/01/12 03:51:03;;;;;;;41.25;19.10;;;4.60;99.90;;;;;;5094214;28;20024;-76
2022/01/12 03:53:28;;;;;;;38.38;18.02;;;4.60;99.90;;;;;;5094785;28;20020;-76
2022/01/12 03:55:54;;;;;;;41.85;19.02;;;4.60;99.90;;;;;;5094034;28;20020;-75
2022/01/12 03:58:19;;;;;;;40.72;20.58;;;4.60;99.90;;;;;;5094086;28;20028;-77
2022/01/12 04:00:45;;;;;;;38.55;18.90;;;4.60;99.90;;;;;;5094529;28;20024;-77
2022/01/12 04:03:12;;;;;;;36.03;20.15;;;4.60;99.90;;;;;;5094547;28;20044;-76
2022/01/12 04:08:21;;;;;;;38.50;20.25;;;4.70;99.90;;;;;;5094994;28;20044;-76
2022/01/12 04:10:50;;;;;;;38.30;19.07;;;4.70;99.90;;;;;;5094545;28;20023;-76
2022/01/12 04:13:17;;;;;;;39.17;19.67;;;4.70;99.90;;;;;;5093686;28;20075;-77
2022/01/12 04:15:44;;;;;;;40.85;19.67;;;4.70;99.90;;;;;;5094385;28;20020;-77
2022/01/12 04:18:10;;;;;;;38.80;19.48;;;4.60;99.90;;;;;;5093290;28;20388;-77
2022/01/12 04:20:43;;;;;;;37.33;17.63;;;4.70;99.90;;;;;;5093869;28;20085;-77
2022/01/12 04:23:18;;;;;;;32.83;17.88;;;4.60;99.90;;;;;;5093919;28;20404;-77
2022/01/12 04:25:44;;;;;;;31.67;16.58;;;4.60;99.90;;;;;;5094878;28;20024;-78
2022/01/12 04:28:09;;;;;;;35.08;17.75;;;4.60;99.90;;;;;;5093406;28;20031;-78
2022/01/12 04:30:35;;;;;;;35.95;18.42;;;4.60;99.90;;;;;;5093363;28;20024;-76
2022/01/12 04:33:03;;;;;;;39.83;18.20;;;4.60;99.90;;;;;;5094535;28;20032;-78
2022/01/12 04:35:46;;;;;;;36.47;18.42;;;4.60;99.90;;;;;;5095181;28;20020;-78
2022/01/12 04:38:12;;;;;;;42.95;18.58;;;4.60;99.90;;;;;;5092828;28;20028;-76
2022/01/12 04:40:37;;;;;;;43.15;18.90;;;4.60;99.90;;;;;;5093454;28;20020;-77
2022/01/12 04:43:08;;;;;;;39.97;18.38;;;4.60;99.90;;;;;;5093282;28;20489;-77
2022/01/12 04:45:41;;;;;;;37.90;18.52;;;4.60;99.90;;;;;;5093041;28;20032;-77
2022/01/12 04:48:20;;;;;;;32.75;16.65;;;4.60;99.90;;;;;;5093266;28;20526;-77
2022/01/12 04:50:47;;;;;;;50.75;20.73;;;4.60;99.90;;;;;;5093788;28;20479;-77
2022/01/12 04:53:14;;;;;;;39.22;19.13;;;4.60;99.90;;;;;;5093751;28;20117;-77
2022/01/12 04:55:41;;;;;;;44.42;19.35;;;4.70;99.90;;;;;;5093893;28;20066;-77
2022/01/12 04:58:07;;;;;;;43.70;18.60;;;4.10;99.90;;;;;;5093164;28;20035;-77
2022/01/12 05:00:34;;;;;;;43.05;18.65;;;4.70;99.90;;;;;;5093417;28;20020;-77
2022/01/12 05:13:47;;;;;;;49.80;19.52;;;4.60;99.90;;;;;;5092879;28;20490;-76
2022/01/12 05:16:13;;;;;;;41.22;18.70;;;4.70;99.90;;;;;;5093401;28;20028;-77
2022/01/12 05:18:40;;;;;;;53.05;20.52;;;4.70;99.90;;;;;;5093143;28;20060;-76
2022/01/12 05:21:06;;;;;;;45.03;19.45;;;4.70;99.90;;;;;;5091928;28;20035;-76
2022/01/12 05:23:33;;;;;;;47.38;19.63;;;4.70;99.90;;;;;;5092963;28;20102;-76
2022/01/12 05:25:59;;;;;;;42.95;18.20;;;4.70;99.90;;;;;;5091924;28;20494;-77
2022/01/12 05:28:25;;;;;;;54.83;21.85;;;4.70;99.90;;;;;;5091706;28;20020;-77
2022/01/12 05:30:52;;;;;;;42.63;19.70;;;4.70;99.90;;;;;;5092847;28;20053;-76
2022/01/12 05:33:19;;;;;;;50.45;20.33;;;4.70;99.90;;;;;;5092603;28;20111;-76
2022/01/12 05:35:45;;;;;;;45.83;20.48;;;4.70;99.90;;;;;;5092203;28;20027;-77
2022/01/12 05:38:13;;;;;;;53.45;20.50;;;4.70;99.90;;;;;;5092467;28;20099;-77
2022/01/12 05:40:46;;;;;;;48.42;21.42;;;4.70;99.90;;;;;;5091583;28;20118;-77
2022/01/12 05:43:13;;;;;;;41.45;20.85;;;4.70;99.90;;;;;;5092140;28;20503;-76
2022/01/12 05:45:45;;;;;;;47.97;20.67;;;4.80;99.90;;;;;;5092597;28;20032;-77
2022/01/12 05:50:38;;;;;;;39.97;18.90;;;4.70;99.90;;;;;;5092419;28;20149;-76
2022/01/12 05:53:04;;;;;;;48.97;18.85;;;4.70;99.90;;;;;;5092551;28;20085;-76
2022/01/12 05:55:30;;;;;;;53.97;21.02;;;4.60;99.90;;;;;;5091979;28;20029;-77
2022/01/12 05:57:56;;;;;;;58.10;20.65;;;4.70;99.90;;;;;;5092493;28;20059;-77
2022/01/12 06:00:24;;;;;;;50.90;19.90;;;4.60;99.90;;;;;;5092308;28;20047;-77
2022/01/12 06:02:51;;;;;;;56.88;20.33;;;4.70;99.90;;;;;;5091589;28;20179;-77
2022/01/12 06:05:18;;;;;;;41.38;17.67;;;4.60;99.90;;;;;;5093443;28;20032;-76
2022/01/12 06:07:46;;;;;;;37.90;16.67;;;4.60;99.90;;;;;;5093384;28;20020;-77
2022/01/12 06:10:12;;;;;;;42.55;17.17;;;4.60;99.90;;;;;;5091093;28;20020;-77
2022/01/12 06:12:38;;;;;;;42.67;16.15;;;4.60;99.90;;;;;;5092424;28;20437;-76
2022/01/12 06:15:05;;;;;;;40.63;17.30;;;4.60;99.90;;;;;;5093181;28;20103;-77
2022/01/12 06:17:31;;;;;;;44.58;19.38;;;4.60;99.90;;;;;;5092247;28;20088;-77
2022/01/12 06:19:56;;;;;;;47.78;19.55;;;4.60;99.90;;;;;;5091933;28;20103;-78
2022/01/12 06:22:23;;;;;;;43.15;18.52;;;4.60;99.90;;;;;;5092776;28;20504;-78
2022/01/12 06:24:50;;;;;;;63.00;18.83;;;4.60;99.90;;;;;;5092616;28;20024;-77
2022/01/12 06:27:17;;;;;;;56.17;20.50;;;4.60;99.90;;;;;;5093331;28;20040;-76
2022/01/12 06:32:09;;;;;;;43.42;18.52;;;4.70;99.90;;;;;;5091840;28;20119;-77
2022/01/12 06:34:35;;;;;;;163.30;19.38;;;4.70;99.90;;;;;;5077311;28;20099;-78
2022/01/12 06:37:01;;;;;;;41.85;15.95;;;4.60;99.90;;;;;;5071976;28;20058;-77
2022/01/12 06:39:27;;;;;;;44.67;15.57;;;4.50;99.90;;;;;;5074768;28;20091;-76
2022/01/12 06:41:54;;;;;;;87.60;16.92;;;4.40;99.90;;;;;;5075006;28;20471;-77
2022/01/12 06:44:21;;;;;;;50.53;15.50;;;4.40;99.90;;;;;;5074741;28;20129;-78
2022/01/12 06:46:51;;;;;;;44.28;15.13;;;4.30;99.90;;;;;;5077489;28;20119;-77
2022/01/12 06:49:18;;;;;;;68.32;16.83;;;4.40;99.90;;;;;;5076090;28;20082;-76
2022/01/12 06:51:45;;;;;;;41.65;17.08;;;4.30;99.90;;;;;;5080729;28;20037;-78
2022/01/12 06:54:12;;;;;;;43.13;15.13;;;4.30;99.90;;;;;;5082197;28;20013;-76
2022/01/12 06:56:37;;;;;;;41.72;15.85;;;4.30;99.90;;;;;;5078004;28;20073;-78
2022/01/12 06:59:04;;;;;;;152.18;17.60;;;4.20;99.90;;;;;;5081047;28;20386;-77
2022/01/12 07:01:29;;;;;;;44.80;16.20;;;4.20;99.90;;;;;;5081139;28;20375;-77
2022/01/12 07:03:55;;;;;;;38.05;16.08;;;4.20;99.90;;;;;;5092115;28;20048;-77
2022/01/12 07:06:21;;;;;;;51.42;15.52;;;4.20;99.90;;;;;;5093877;28;20020;-77
2022/01/12 07:08:47;;;;;;;37.58;13.77;;;4.10;99.90;;;;;;5095004;28;20490;-78
2022/01/12 07:11:12;;;;;;;44.60;14.57;;;4.10;99.90;;;;;;5094616;28;20036;-79
2022/01/12 07:13:38;;;;;;;41.88;15.50;;;4.00;99.90;;;;;;5074640;28;20036;-78
2022/01/12 07:16:04;;;;;;;39.60;17.00;;;4.10;99.90;;;;;;5082863;28;20013;-77
2022/01/12 07:18:32;;;;;;;53.30;16.58;;;4.10;99.90;;;;;;5074184;28;20547;-78
2022/01/12 07:20:59;;;;;;;113.63;19.13;;;4.10;99.90;;;;;;5089943;28;20433;-76
2022/01/12 07:23:25;;;;;;;43.60;16.23;;;4.10;99.90;;;;;;5088277;28;20529;-78
2022/01/12 07:25:52;;;;;;;107.25;19.67;;;4.00;99.90;;;;;;5094567;28;20032;-77
2022/01/12 07:28:18;;;;;;;46.78;16.92;;;4.10;99.90;;;;;;5094605;28;20561;-78
2022/01/12 07:30:44;;;;;;;104.03;19.60;;;4.10;99.90;;;;;;5093032;28;20089;-77
2022/01/12 07:33:11;;;;;;;64.47;18.48;;;4.10;99.90;;;;;;5094517;28;20027;-76
2022/01/12 07:35:36;;;;;;;44.08;18.83;;;4.10;99.90;;;;;;5095519;28;20023;-76
2022/01/12 07:38:03;;;;;;;43.97;16.48;;;4.10;99.90;;;;;;5094890;28;20020;-77
2022/01/12 07:40:29;;;;;;;47.60;17.23;;;4.10;99.90;;;;;;5095134;28;20020;-78
2022/01/12 07:42:55;;;;;;;39.03;18.38;;;4.10;99.90;;;;;;5077162;28;20025;-72
2022/01/12 07:45:21;;;;;;;41.78;19.17;;;4.20;99.90;;;;;;5093416;28;20376;-73
2022/01/12 07:47:47;;;;;;;87.18;19.42;;;4.20;99.90;;;;;;5085182;28;20027;-73
2022/01/12 07:50:12;;;;;;;83.70;20.45;;;4.20;99.90;;;;;;5085063;28;20579;-73
2022/01/12 07:52:38;;;;;;;82.82;19.45;;;4.20;99.90;;;;;;5094658;28;20458;-74
2022/01/12 07:55:05;;;;;;;42.65;18.00;;;4.20;99.90;;;;;;5094120;28;20024;-75
2022/01/12 07:57:30;;;;;;;39.42;17.75;;;4.20;99.90;;;;;;5094963;28;20396;-73
2022/01/12 07:59:56;;;;;;;44.30;18.95;;;4.20;99.90;;;;;;5095380;28;20025;-73
2022/01/12 08:02:22;;;;;;;66.15;18.65;;;4.20;99.90;;;;;;5081459;28;20353;-74
2022/01/12 08:04:48;;;;;;;69.88;18.45;;;4.70;99.90;;;;;;5093912;28;20043;-74
2022/01/12 08:07:13;;;;;;;45.67;18.45;;;4.30;99.90;;;;;;5092027;28;20146;-72
2022/01/12 08:09:41;;;;;;;39.65;17.30;;;4.30;99.90;;;;;;5085974;28;20498;-74
2022/01/12 08:12:07;;;;;;;90.80;18.80;;;4.30;99.90;;;;;;5091700;28;20032;-74
2022/01/12 08:14:33;;;;;;;37.78;16.67;;;4.40;99.90;;;;;;5083995;28;20035;-74
2022/01/12 08:16:59;;;;;;;40.90;17.13;;;4.40;99.90;;;;;;5093398;28;20024;-72
2022/01/12 08:19:26;;;;;;;41.65;17.02;;;4.40;99.90;;;;;;5094244;28;20032;-74
2022/01/12 08:21:52;;;;;;;102.72;16.58;;;4.40;99.90;;;;;;5094640;28;20032;-74
2022/01/12 08:24:18;;;;;;;41.03;14.65;;;4.40;99.90;;;;;;5093922;28;20051;-71
2022/01/12 08:26:44;;;;;;;40.35;15.50;;;4.40;99.90;;;;;;5094312;28;20479;-73
2022/01/12 08:29:13;;;;;;;62.55;16.35;;;4.40;99.90;;;;;;5093265;28;20313;-74
2022/01/12 08:31:38;;;;;;;33.33;12.20;;;4.40;99.90;;;;;;5077883;28;20100;-74
2022/01/12 08:34:04;;;;;;;56.13;12.02;;;4.40;99.90;;;;;;5074052;28;20070;-75
2022/01/12 08:36:30;;;;;;;40.67;10.35;;;4.50;99.90;;;;;;5072796;28;20052;-74
2022/01/12 08:38:57;;;;;;;41.33;9.80;;;4.40;99.90;;;;;;5073431;28;20024;-74
2022/01/12 08:41:26;;;;;;;26.75;9.57;;;4.40;99.90;;;;;;5073575;28;20024;-75
2022/01/12 08:43:52;;;;;;;36.47;11.55;;;4.50;99.90;;;;;;5073127;28;20344;-74
2022/01/12 08:46:18;;;;;;;33.92;11.20;;;4.50;99.90;;;;;;5072838;28;20029;-74
2022/01/12 08:48:43;;;;;;;22.02;9.43;;;4.50;99.90;;;;;;5073313;28;20024;-74
2022/01/12 08:51:09;;;;;;;19.83;8.50;;;4.60;99.90;;;;;;5072089;28;20031;-75
2022/01/12 08:53:35;;;;;;;22.05;8.05;;;4.50;99.90;;;;;;5073561;28;20113;-75
2022/01/12 08:56:01;;;;;;;27.27;8.05;;;4.60;99.90;;;;;;5074285;28;20029;-74
2022/01/12 08:58:26;;;;;;;31.88;7.63;;;4.60;99.90;;;;;;5072283;28;20028;-73
2022/01/12 09:00:52;;;;;;;14.65;7.60;;;4.60;99.90;;;;;;5073338;28;20078;-73
2022/01/12 09:03:17;;;;;;;14.45;6.90;;;4.60;99.90;;;;;;5073032;28;20047;-74
2022/01/12 09:05:43;;;;;;;17.48;8.05;;;4.60;99.90;;;;;;5072423;28;20100;-74
2022/01/12 09:08:09;;;;;;;11.77;6.95;;;4.60;99.90;;;;;;5086437;28;20028;-74
2022/01/12 09:10:35;;;;;;;15.75;6.93;;;4.70;99.90;;;;;;5081415;28;20017;-73
2022/01/12 09:13:00;;;;;;;15.80;7.28;;;4.70;99.90;;;;;;5072273;28;20048;-74
2022/01/12 09:15:26;;;;;;;18.02;8.70;;;4.70;99.90;;;;;;5072892;28;20021;-74
2022/01/12 09:17:53;;;;;;;18.58;8.88;;;4.80;99.90;;;;;;5073148;28;20033;-74
2022/01/12 09:20:19;;;;;;;18.10;8.27;;;4.90;99.90;;;;;;5072157;28;20085;-74
2022/01/12 09:22:45;;;;;;;15.45;7.40;;;4.90;99.90;;;;;;5073277;28;20362;-74
2022/01/12 09:25:12;;;;;;;16.77;7.88;;;4.90;99.90;;;;;;5072618;28;20032;-74
2022/01/12 09:27:38;;;;;;;14.75;7.60;;;5.00;99.90;;;;;;5071837;28;20032;-74
2022/01/12 09:30:07;;;;;;;20.42;7.90;;;5.00;99.90;;;;;;5088139;28;20523;-74
2022/01/12 09:32:33;;;;;;;12.57;7.55;;;5.00;99.90;;;;;;5093003;28;20105;-75
2022/01/12 09:34:59;;;;;;;21.08;7.93;;;5.00;99.90;;;;;;5092073;28;20468;-75
2022/01/12 09:37:25;;;;;;;16.00;8.20;;;5.10;99.90;;;;;;5092309;28;20105;-75
2022/01/12 09:39:50;;;;;;;25.00;8.35;;;5.10;99.90;;;;;;5091862;28;20474;-75
2022/01/12 09:42:17;;;;;;;16.55;7.85;;;5.10;99.90;;;;;;5092212;28;20020;-74
2022/01/12 09:44:47;;;;;;;19.92;8.13;;;5.10;99.90;;;;;;5092434;28;20047;-73
2022/01/12 09:47:13;;;;;;;14.50;8.07;;;5.10;99.90;;;;;;5091137;28;20036;-73
2022/01/12 09:49:45;;;;;;;16.45;7.15;;;5.10;99.90;;;;;;5075281;28;20078;-73
2022/01/12 09:52:11;;;;;;;19.40;7.32;;;5.20;99.90;;;;;;5071706;28;20040;-76
2022/01/12 09:54:37;;;;;;;17.02;7.35;;;5.10;99.90;;;;;;5071215;28;20024;-74
2022/01/12 09:57:04;;;;;;;15.45;7.22;;;5.10;99.90;;;;;;5071801;28;20358;-75
2022/01/12 09:59:30;;;;;;;17.05;7.05;;;5.10;99.90;;;;;;5071677;28;20051;-75
2022/01/12 10:01:55;;;;;;;15.82;7.80;;;5.10;99.90;;;;;;5070575;28;20547;-75
2022/01/12 10:04:26;;;;;;;16.23;7.15;;;5.10;99.90;;;;;;5070656;28;20089;-75
2022/01/12 10:07:03;;;;;;;18.02;7.15;;;5.10;99.90;;;;;;5071904;28;20039;-76
2022/01/12 10:09:39;;;;;;;15.38;6.70;;;5.10;99.90;;;;;;5077500;28;20077;-74
2022/01/12 10:12:11;;;;;;;15.50;6.80;;;5.20;99.90;;;;;;5090459;28;20043;-74
2022/01/12 10:14:49;;;;;;;16.20;7.32;;;5.20;99.90;;;;;;5091173;28;20029;-71
2022/01/12 10:17:16;;;;;;;17.77;7.80;;;5.30;99.90;;;;;;5091021;28;20060;-71
2022/01/12 10:19:42;;;;;;;17.98;7.28;;;5.40;99.90;;;;;;5092174;28;20459;-71
2022/01/12 10:22:10;;;;;;;15.85;6.70;;;5.50;99.90;;;;;;5092053;28;20101;-71
2022/01/12 10:24:40;;;;;;;17.58;7.25;;;5.60;99.90;;;;;;5086173;28;20056;-70
2022/01/12 10:27:20;;;;;;;15.60;6.22;;;5.60;99.90;;;;;;5070580;28;20028;-75
2022/01/12 10:29:55;;;;;;;13.20;7.20;;;5.70;99.90;;;;;;5070836;28;20029;-76
2022/01/12 10:32:20;;;;;;;14.50;7.00;;;5.70;99.90;;;;;;5071163;28;20457;-74
2022/01/12 10:34:48;;;;;;;14.70;7.05;;;5.80;99.90;;;;;;5071569;28;20029;-74
2022/01/12 10:37:22;;;;;;;14.93;7.57;;;5.80;99.90;;;;;;5070882;28;20441;-74
2022/01/12 10:39:50;;;;;;;16.80;8.48;;;5.70;99.90;;;;;;5072193;28;20020;-74
2022/01/12 10:42:21;;;;;;;14.95;7.93;;;5.70;99.90;;;;;;5075229;28;20103;-74
2022/01/12 10:44:48;;;;;;;;;;;5.70;99.90;;;;;;5091828;28;20030;-74
2022/01/12 10:47:17;;;;;;;17.02;7.72;;;5.70;99.90;;;;;;5091834;28;19904;-74
2022/01/12 10:49:56;;;;;;;16.00;8.40;;;5.70;99.90;;;;;;5092397;28;20024;-74
2022/01/12 10:52:24;;;;;;;20.02;8.65;;;5.70;99.90;;;;;;5091559;28;20429;-74
2022/01/12 10:54:52;;;;;;;17.10;7.88;;;5.80;99.90;;;;;;5091969;28;20104;-75
2022/01/12 10:57:25;;;;;;;15.45;7.03;;;5.80;99.90;;;;;;5090675;28;20110;-74
2022/01/12 11:00:10;;;;;;;15.20;7.63;;;5.80;99.90;;;;;;5091745;28;20024;-75
2022/01/12 11:02:38;;;;;;;16.67;8.95;;;5.90;99.90;;;;;;5091389;28;20066;-74
2022/01/12 11:05:07;;;;;;;21.63;9.73;;;5.90;99.90;;;;;;5090477;28;20301;-74
2022/01/12 11:07:33;;;;;;;23.70;11.38;;;5.90;99.90;;;;;;5091611;28;20403;-74
2022/01/12 11:10:00;;;;;;;17.92;9.38;;;6.00;99.90;;;;;;5091328;28;20031;-73
2022/01/12 11:12:27;;;;;;;27.33;11.50;;;5.90;99.90;;;;;;5090292;28;20040;-75
2022/01/12 11:14:53;;;;;;;17.40;10.20;;;6.00;99.90;;;;;;5090837;28;20153;-74
2022/01/12 11:17:18;;;;;;;24.27;11.25;;;6.00;99.90;;;;;;5085010;28;20108;-74
2022/01/12 11:20:10;;;;;;;19.25;10.82;;;5.90;99.90;;;;;;5083572;28;20040;-74
2022/01/12 11:23:03;;;;;;;21.50;11.15;;;6.00;99.90;;;;;;5077122;28;20028;-74
2022/01/12 11:25:33;;;;;;;20.92;9.88;;;6.10;99.90;;;;;;5081717;28;20036;-74
2022/01/12 11:28:14;;;;;;;28.05;10.60;;;6.10;99.90;;;;;;5079810;28;20032;-74
2022/01/12 11:30:50;;;;;;;19.20;10.32;;;6.20;99.90;;;;;;5092335;28;20062;-74
2022/01/12 11:33:37;;;;;;;23.98;10.90;;;6.20;99.90;;;;;;5093824;28;20038;-74
2022/01/12 11:36:22;;;;;;;31.65;13.25;;;6.30;99.90;;;;;;5094809;28;20026;-74
2022/01/12 11:39:03;;;;;;;31.42;12.77;;;6.30;99.90;;;;;;5094874;28;20024;-74
2022/01/12 11:41:31;;;;;;;33.75;14.95;;;6.30;99.90;;;;;;5093935;28;20023;-74
2022/01/12 11:44:04;;;;;;;38.28;15.23;;;6.40;99.90;;;;;;5094744;28;20028;-74
2022/01/12 11:46:49;;;;;;;36.20;14.63;;;6.40;99.90;;;;;;5093868;28;20059;-74
2022/01/12 11:49:31;;;;;;;38.40;14.43;;;6.50;99.90;;;;;;5095067;28;20024;-74
2022/01/12 11:51:59;;;;;;;29.27;13.80;;;6.40;99.90;;;;;;5092906;28;20479;-74
2022/01/12 11:54:36;;;;;;;32.28;14.00;;;6.50;99.90;;;;;;5082271;28;20380;-74
2022/01/12 11:57:04;;;;;;;29.88;12.88;;;6.40;99.90;;;;;;5081309;28;20085;-74
2022/01/12 11:59:48;;;;;;;30.33;12.35;;;6.40;99.90;;;;;;5074778;28;20060;-74
2022/01/12 12:02:14;;;;;;;30.13;12.18;;;6.40;99.90;;;;;;5092362;28;20396;-74
2022/01/12 12:04:55;;;;;;;30.55;12.93;;;6.40;99.90;;;;;;5093605;28;20048;-73
2022/01/12 12:07:23;;;;;;;32.10;13.82;;;6.40;99.90;;;;;;5092422;28;20076;-73
2022/01/12 12:09:56;;;;;;;28.35;12.80;;;6.40;99.90;;;;;;5073364;28;20024;-74
2022/01/12 12:12:34;;;;;;;32.17;11.88;;;6.40;99.90;;;;;;5073094;28;20066;-73
2022/01/12 12:15:03;;;;;;;34.30;12.65;;;6.40;99.90;;;;;;5072745;28;20032;-74
2022/01/12 12:17:30;;;;;;;29.15;11.95;;;6.40;99.90;;;;;;5073711;28;20328;-73
2022/01/12 12:19:57;;;;;;;26.70;11.02;;;6.40;99.90;;;;;;5074029;28;20025;-74
2022/01/12 12:22:34;;;;;;;26.38;10.63;;;6.40;99.90;;;;;;5090228;28;20506;-74
2022/01/12 12:25:06;;;;;;;29.40;12.38;;;6.40;99.90;;;;;;5094056;28;20032;-74
2022/01/12 12:27:33;;;;;;;31.02;10.43;;;6.50;99.90;;;;;;5094615;28;20372;-74
2022/01/12 12:30:00;;;;;;;38.50;12.57;;;6.50;99.90;;;;;;5093329;28;20375;-75
2022/01/12 12:32:38;;;;;;;40.88;14.52;;;6.50;99.90;;;;;;5094067;28;20429;-74
2022/01/12 12:35:07;;;;;;;31.33;13.50;;;6.50;99.90;;;;;;5092879;28;20099;-75
2022/01/12 12:37:41;;;;;;;24.38;11.73;;;6.60;99.90;;;;;;5080729;28;20063;-74
2022/01/12 12:40:15;;;;;;;27.35;11.07;;;6.60;99.90;;;;;;5072344;28;20064;-75
2022/01/12 12:42:41;;;;;;;31.08;11.82;;;6.60;99.90;;;;;;5074379;28;20032;-75
2022/01/12 12:45:08;;;;;;;27.67;12.30;;;6.60;99.90;;;;;;5074089;28;20047;-74
2022/01/12 12:47:34;;;;;;;32.10;12.15;;;6.60;99.90;;;;;;5074528;28;20047;-74
2022/01/12 12:50:03;;;;;;;26.58;10.80;;;6.60;99.90;;;;;;5074817;28;20025;-74
2022/01/12 12:52:34;;;;;;;21.08;9.82;;;6.60;99.90;;;;;;5073026;28;20530;-73
2022/01/12 12:55:06;;;;;;;19.98;10.00;;;6.50;99.90;;;;;;5077504;28;20074;-74
2022/01/12 12:57:32;;;;;;;28.05;11.43;;;6.50;99.90;;;;;;5092661;28;20043;-74
2022/01/12 13:00:14;;;;;;;27.92;8.98;;;6.50;99.90;;;;;;5095562;28;20035;-74
2022/01/12 13:02:43;;;;;;;19.60;8.00;;;6.50;99.90;;;;;;5093931;28;20043;-74
2022/01/12 13:05:12;;;;;;;27.13;10.13;;;6.40;99.90;;;;;;5093038;28;20051;-74
2022/01/12 13:07:40;;;;;;;27.05;10.10;;;6.50;99.90;;;;;;5094298;28;20028;-74
2022/01/12 13:10:14;;;;;;;23.23;9.77;;;6.50;99.90;;;;;;5094207;28;20043;-74
2022/01/12 13:12:43;;;;;;;22.83;10.90;;;6.40;99.90;;;;;;5085327;28;20020;-73
2022/01/12 13:15:11;;;;;;;31.17;12.43;;;6.40;99.90;;;;;;5073182;28;20069;-75
2022/01/12 13:17:39;;;;;;;21.75;10.52;;;6.40;99.90;;;;;;5093162;28;20119;-75
2022/01/12 13:22:44;;;;;;;19.55;9.43;;;6.50;99.90;;;;;;5089942;28;20028;-74
2022/01/12 13:25:14;;;;;;;29.67;9.63;;;6.50;99.90;;;;;;5083376;28;20028;-73
2022/01/12 13:27:40;;;;;;;31.50;10.13;;;6.50;99.90;;;;;;5088335;28;20403;-75
2022/01/12 13:30:21;;;;;;;19.95;8.52;;;6.50;99.90;;;;;;5090239;28;20028;-74
2022/01/12 13:32:52;;;;;;;20.85;8.30;;;6.50;99.90;;;;;;5090834;28;20083;-74
2022/01/12 13:35:25;;;;;;;18.50;8.27;;;6.50;99.90;;;;;;5090684;28;20032;-74
2022/01/12 13:37:56;;;;;;;16.92;7.80;;;6.40;99.90;;;;;;5091206;28;20043;-74
2022/01/12 13:40:22;;;;;;;23.25;9.98;;;6.40;99.90;;;;;;5087243;28;20429;-74
2022/01/12 13:42:54;;;;;;;25.05;9.65;;;6.40;99.90;;;;;;5090484;28;20020;-74
2022/01/12 13:45:40;;;;;;;22.55;10.90;;;6.40;99.90;;;;;;5089560;28;20028;-75
2022/01/12 13:48:18;;;;;;;23.67;10.70;;;6.30;99.90;;;;;;5088293;28;20121;-75
2022/01/12 13:50:54;;;;;;;24.13;10.43;;;6.40;99.90;;;;;;5089763;28;20027;-75
2022/01/12 13:53:34;;;;;;;23.88;10.05;;;6.30;99.90;;;;;;5088996;28;20153;-75
2022/01/12 13:56:01;;;;;;;20.88;9.43;;;6.30;99.90;;;;;;5089976;28;20528;-75
2022/01/12 13:58:28;;;;;;;28.27;9.38;;;6.30;99.90;;;;;;5089930;28;20043;-75
2022/01/12 14:01:10;;;;;;;23.52;8.90;;;6.40;99.90;;;;;;5088796;28;20059;-75
2022/01/12 14:03:50;;;;;;;20.95;10.63;;;6.30;99.90;;;;;;5089346;28;20052;-75
2022/01/12 14:06:18;;;;;;;26.27;10.45;;;6.30;99.90;;;;;;5090284;28;20488;-75
2022/01/12 14:08:54;;;;;;;30.98;10.90;;;6.30;99.90;;;;;;5090719;28;20024;-75
2022/01/12 14:11:21;;;;;;;22.05;9.82;;;6.30;99.90;;;;;;5089713;28;20032;-75
2022/01/12 14:13:47;;;;;;;28.98;9.80;;;6.30;99.90;;;;;;5089627;28;20036;-75